LFRQ 301030Z AUTO 12009KT 070V150 CAVOK 25/08 Q1018

ElémentsDécodage
LFRQ Station météo située sur l'aérodrome de QUIMPER Pluguffan
301030Z émis le 30 du mois à 10h30 UTC
AUTO Bulletin édité par un automate
12009KT vent du 120°, 09 noeuds
070V150 vent de direction variable entre 070° et 150°
CAVOK Ceiling And Visibility OK
- Visibilité de 10 Km ou plus
- Pas de nuage au-dessous de 1500m ou au-dessous de l'altitude minimale du secteur la plus élevée (si>1500m) et absence de CB
- pas de temps présent significatif
25/08 température 25°C, point de rosée 08°C
 soit une humidité relative de 34%
Q1018 la pression au niveau de la mer (QNH) est de 1018 hPa